sensor_id;sensor_type;location;lat;lon;timestamp;P1;durP1;ratioP1;P2;durP2;ratioP2
71095;SDS011;58753;49.440;11.126;2023-02-15T00:01:33;19.65;;;8.00;;
71095;SDS011;58753;49.440;11.126;2023-02-15T00:03:59;23.00;;;10.75;;
71095;SDS011;58753;49.440;11.126;2023-02-15T00:06:24;23.23;;;9.60;;
71095;SDS011;58753;49.440;11.126;2023-02-15T00:08:50;19.10;;;7.65;;
71095;SDS011;58753;49.440;11.126;2023-02-15T00:11:16;19.43;;;8.93;;
71095;SDS011;58753;49.440;11.126;2023-02-15T00:14:04;24.48;;;9.82;;
71095;SDS011;58753;49.440;11.126;2023-02-15T00:16:41;22.55;;;9.80;;
71095;SDS011;58753;49.440;11.126;2023-02-15T00:19:08;25.60;;;9.32;;
71095;SDS011;58753;49.440;11.126;2023-02-15T00:21:35;24.25;;;9.32;;
71095;SDS011;58753;49.440;11.126;2023-02-15T00:24:02;21.93;;;8.63;;
71095;SDS011;58753;49.440;11.126;2023-02-15T00:26:28;20.73;;;8.77;;
71095;SDS011;58753;49.440;11.126;2023-02-15T00:28:55;18.83;;;7.32;;
71095;SDS011;58753;49.440;11.126;2023-02-15T00:31:22;20.63;;;8.50;;
71095;SDS011;58753;49.440;11.126;2023-02-15T00:33:48;23.63;;;8.83;;
71095;SDS011;58753;49.440;11.126;2023-02-15T00:36:13;21.03;;;7.90;;
71095;SDS011;58753;49.440;11.126;2023-02-15T00:38:39;23.20;;;9.15;;
71095;SDS011;58753;49.440;11.126;2023-02-15T00:41:05;19.27;;;7.97;;
71095;SDS011;58753;49.440;11.126;2023-02-15T00:43:31;20.80;;;7.40;;
71095;SDS011;58753;49.440;11.126;2023-02-15T00:45:58;21.58;;;7.20;;
71095;SDS011;58753;49.440;11.126;2023-02-15T00:48:24;19.93;;;9.03;;
71095;SDS011;58753;49.440;11.126;2023-02-15T00:50:50;21.05;;;9.00;;
71095;SDS011;58753;49.440;11.126;2023-02-15T00:53:21;19.17;;;8.27;;
71095;SDS011;58753;49.440;11.126;2023-02-15T00:55:47;19.27;;;7.78;;
71095;SDS011;58753;49.440;11.126;2023-02-15T00:58:13;20.40;;;8.18;;
71095;SDS011;58753;49.440;11.126;2023-02-15T01:00:40;18.13;;;8.07;;
71095;SDS011;58753;49.440;11.126;2023-02-15T01:03:07;16.93;;;7.13;;
71095;SDS011;58753;49.440;11.126;2023-02-15T01:05:33;13.73;;;6.30;;
71095;SDS011;58753;49.440;11.126;2023-02-15T01:07:58;19.17;;;7.67;;
71095;SDS011;58753;49.440;11.126;2023-02-15T01:10:24;21.63;;;8.50;;
71095;SDS011;58753;49.440;11.126;2023-02-15T01:12:51;20.95;;;8.35;;
71095;SDS011;58753;49.440;11.126;2023-02-15T01:15:17;22.55;;;8.80;;
71095;SDS011;58753;49.440;11.126;2023-02-15T01:17:43;19.63;;;7.47;;
71095;SDS011;58753;49.440;11.126;2023-02-15T01:20:14;19.58;;;9.18;;
71095;SDS011;58753;49.440;11.126;2023-02-15T01:22:40;22.23;;;8.48;;
71095;SDS011;58753;49.440;11.126;2023-02-15T01:25:05;18.67;;;7.60;;
71095;SDS011;58753;49.440;11.126;2023-02-15T01:27:31;19.67;;;8.07;;
71095;SDS011;58753;49.440;11.126;2023-02-15T01:29:56;17.07;;;7.23;;
71095;SDS011;58753;49.440;11.126;2023-02-15T01:32:22;20.95;;;7.75;;
71095;SDS011;58753;49.440;11.126;2023-02-15T01:34:48;16.83;;;7.53;;
71095;SDS011;58753;49.440;11.126;2023-02-15T01:37:13;19.58;;;7.55;;
71095;SDS011;58753;49.440;11.126;2023-02-15T01:39:38;19.27;;;7.60;;
71095;SDS011;58753;49.440;11.126;2023-02-15T01:42:04;20.90;;;8.63;;
71095;SDS011;58753;49.440;11.126;2023-02-15T01:50:09;24.35;;;9.52;;
71095;SDS011;58753;49.440;11.126;2023-02-15T01:52:39;19.08;;;8.50;;
71095;SDS011;58753;49.440;11.126;2023-02-15T01:55:09;23.53;;;9.10;;
71095;SDS011;58753;49.440;11.126;2023-02-15T01:57:35;19.45;;;9.07;;
71095;SDS011;58753;49.440;11.126;2023-02-15T02:00:02;22.55;;;8.52;;
71095;SDS011;58753;49.440;11.126;2023-02-15T02:02:30;22.00;;;7.82;;
71095;SDS011;58753;49.440;11.126;2023-02-15T02:04:58;17.60;;;7.70;;
71095;SDS011;58753;49.440;11.126;2023-02-15T02:07:29;19.80;;;8.43;;
71095;SDS011;58753;49.440;11.126;2023-02-15T02:09:58;20.75;;;8.05;;
71095;SDS011;58753;49.440;11.126;2023-02-15T02:12:23;22.10;;;8.67;;
71095;SDS011;58753;49.440;11.126;2023-02-15T02:14:49;20.35;;;8.35;;
71095;SDS011;58753;49.440;11.126;2023-02-15T02:22:46;20.85;;;7.65;;
71095;SDS011;58753;49.440;11.126;2023-02-15T02:34:26;21.87;;;7.33;;
71095;SDS011;58753;49.440;11.126;2023-02-15T02:42:29;23.00;;;8.63;;
71095;SDS011;58753;49.440;11.126;2023-02-15T02:45:09;22.65;;;9.07;;
71095;SDS011;58753;49.440;11.126;2023-02-15T02:47:48;18.60;;;8.20;;
71095;SDS011;58753;49.440;11.126;2023-02-15T02:50:22;23.95;;;8.63;;
71095;SDS011;58753;49.440;11.126;2023-02-15T02:52:51;22.20;;;8.70;;
71095;SDS011;58753;49.440;11.126;2023-02-15T02:57:55;20.95;;;8.52;;
71095;SDS011;58753;49.440;11.126;2023-02-15T03:00:26;23.87;;;9.43;;
71095;SDS011;58753;49.440;11.126;2023-02-15T03:02:56;21.20;;;8.43;;
71095;SDS011;58753;49.440;11.126;2023-02-15T03:05:29;25.05;;;9.15;;
71095;SDS011;58753;49.440;11.126;2023-02-15T03:07:56;21.63;;;8.93;;
71095;SDS011;58753;49.440;11.126;2023-02-15T03:10:25;23.10;;;8.93;;
71095;SDS011;58753;49.440;11.126;2023-02-15T03:12:54;27.17;;;9.43;;
71095;SDS011;58753;49.440;11.126;2023-02-15T03:15:21;21.30;;;7.80;;
71095;SDS011;58753;49.440;11.126;2023-02-15T03:17:55;22.88;;;8.40;;
71095;SDS011;58753;49.440;11.126;2023-02-15T03:20:26;21.98;;;8.85;;
71095;SDS011;58753;49.440;11.126;2023-02-15T03:23:04;19.73;;;7.90;;
71095;SDS011;58753;49.440;11.126;2023-02-15T03:25:36;22.60;;;8.88;;
71095;SDS011;58753;49.440;11.126;2023-02-15T03:28:09;21.52;;;8.75;;
71095;SDS011;58753;49.440;11.126;2023-02-15T03:30:38;22.42;;;7.72;;
71095;SDS011;58753;49.440;11.126;2023-02-15T03:33:07;26.13;;;9.48;;
71095;SDS011;58753;49.440;11.126;2023-02-15T03:35:36;22.57;;;8.23;;
71095;SDS011;58753;49.440;11.126;2023-02-15T03:38:11;23.58;;;9.45;;
71095;SDS011;58753;49.440;11.126;2023-02-15T03:40:42;14.98;;;7.30;;
71095;SDS011;58753;49.440;11.126;2023-02-15T03:43:45;19.58;;;6.85;;
71095;SDS011;58753;49.440;11.126;2023-02-15T03:46:20;17.92;;;6.60;;
71095;SDS011;58753;49.440;11.126;2023-02-15T03:48:53;18.40;;;7.23;;
71095;SDS011;58753;49.440;11.126;2023-02-15T03:51:22;18.73;;;7.18;;
71095;SDS011;58753;49.440;11.126;2023-02-15T03:54:08;18.45;;;6.38;;
71095;SDS011;58753;49.440;11.126;2023-02-15T03:56:38;17.85;;;6.68;;
71095;SDS011;58753;49.440;11.126;2023-02-15T03:59:05;15.48;;;6.15;;
71095;SDS011;58753;49.440;11.126;2023-02-15T04:01:55;17.93;;;7.00;;
71095;SDS011;58753;49.440;11.126;2023-02-15T04:04:41;18.05;;;7.07;;
71095;SDS011;58753;49.440;11.126;2023-02-15T04:07:09;6.90;;;3.20;;
71095;SDS011;58753;49.440;11.126;2023-02-15T04:09:35;15.43;;;6.57;;
71095;SDS011;58753;49.440;11.126;2023-02-15T04:12:19;17.48;;;6.10;;
71095;SDS011;58753;49.440;11.126;2023-02-15T04:14:45;15.32;;;6.53;;
71095;SDS011;58753;49.440;11.126;2023-02-15T04:17:29;16.85;;;6.05;;
71095;SDS011;58753;49.440;11.126;2023-02-15T04:19:54;18.20;;;5.63;;
71095;SDS011;58753;49.440;11.126;2023-02-15T04:22:38;15.10;;;5.50;;
71095;SDS011;58753;49.440;11.126;2023-02-15T04:25:22;13.27;;;6.05;;
71095;SDS011;58753;49.440;11.126;2023-02-15T04:27:51;16.07;;;6.33;;
71095;SDS011;58753;49.440;11.126;2023-02-15T04:30:19;18.48;;;7.00;;
71095;SDS011;58753;49.440;11.126;2023-02-15T04:32:46;14.23;;;6.83;;
71095;SDS011;58753;49.440;11.126;2023-02-15T04:35:12;15.80;;;7.20;;
71095;SDS011;58753;49.440;11.126;2023-02-15T04:37:38;18.97;;;6.90;;
71095;SDS011;58753;49.440;11.126;2023-02-15T04:40:04;16.02;;;7.22;;
71095;SDS011;58753;49.440;11.126;2023-02-15T04:42:30;19.52;;;8.07;;
71095;SDS011;58753;49.440;11.126;2023-02-15T04:44:56;18.97;;;6.50;;
71095;SDS011;58753;49.440;11.126;2023-02-15T04:47:22;14.10;;;6.13;;
71095;SDS011;58753;49.440;11.126;2023-02-15T04:49:47;15.67;;;6.73;;
71095;SDS011;58753;49.440;11.126;2023-02-15T04:52:13;17.10;;;6.80;;
71095;SDS011;58753;49.440;11.126;2023-02-15T04:54:38;15.98;;;6.97;;
71095;SDS011;58753;49.440;11.126;2023-02-15T04:57:04;16.53;;;6.60;;
71095;SDS011;58753;49.440;11.126;2023-02-15T04:59:30;17.17;;;6.93;;
71095;SDS011;58753;49.440;11.126;2023-02-15T05:01:55;16.63;;;7.03;;
71095;SDS011;58753;49.440;11.126;2023-02-15T05:04:20;16.87;;;6.93;;
71095;SDS011;58753;49.440;11.126;2023-02-15T05:06:46;17.42;;;6.68;;
71095;SDS011;58753;49.440;11.126;2023-02-15T05:09:11;17.40;;;7.20;;
71095;SDS011;58753;49.440;11.126;2023-02-15T05:11:37;14.43;;;7.47;;
71095;SDS011;58753;49.440;11.126;2023-02-15T05:14:02;18.20;;;7.50;;
71095;SDS011;58753;49.440;11.126;2023-02-15T05:16:28;19.90;;;7.80;;
71095;SDS011;58753;49.440;11.126;2023-02-15T05:18:53;18.57;;;8.07;;
71095;SDS011;58753;49.440;11.126;2023-02-15T05:21:19;20.60;;;7.57;;
71095;SDS011;58753;49.440;11.126;2023-02-15T05:23:44;19.57;;;7.47;;
71095;SDS011;58753;49.440;11.126;2023-02-15T05:26:15;16.67;;;7.45;;
71095;SDS011;58753;49.440;11.126;2023-02-15T05:29:00;20.70;;;7.77;;
71095;SDS011;58753;49.440;11.126;2023-02-15T05:31:26;18.90;;;7.50;;
71095;SDS011;58753;49.440;11.126;2023-02-15T05:33:51;19.03;;;8.50;;
71095;SDS011;58753;49.440;11.126;2023-02-15T05:36:17;17.53;;;7.40;;
71095;SDS011;58753;49.440;11.126;2023-02-15T05:38:42;21.77;;;8.33;;
71095;SDS011;58753;49.440;11.126;2023-02-15T05:41:08;20.03;;;8.87;;
71095;SDS011;58753;49.440;11.126;2023-02-15T05:43:35;24.90;;;7.97;;
71095;SDS011;58753;49.440;11.126;2023-02-15T05:46:01;19.65;;;8.98;;
71095;SDS011;58753;49.440;11.126;2023-02-15T05:48:27;20.98;;;8.40;;
71095;SDS011;58753;49.440;11.126;2023-02-15T05:51:12;22.03;;;8.90;;
71095;SDS011;58753;49.440;11.126;2023-02-15T05:53:39;21.60;;;7.50;;
71095;SDS011;58753;49.440;11.126;2023-02-15T05:56:05;22.97;;;7.50;;
71095;SDS011;58753;49.440;11.126;2023-02-15T05:58:33;18.27;;;7.43;;
71095;SDS011;58753;49.440;11.126;2023-02-15T06:01:07;25.25;;;8.93;;
71095;SDS011;58753;49.440;11.126;2023-02-15T06:03:36;23.98;;;10.70;;
71095;SDS011;58753;49.440;11.126;2023-02-15T06:06:01;18.90;;;7.40;;
71095;SDS011;58753;49.440;11.126;2023-02-15T06:08:29;19.27;;;7.82;;
71095;SDS011;58753;49.440;11.126;2023-02-15T06:10:55;19.45;;;8.63;;
71095;SDS011;58753;49.440;11.126;2023-02-15T06:13:20;19.10;;;8.53;;
71095;SDS011;58753;49.440;11.126;2023-02-15T06:15:46;20.73;;;8.00;;
71095;SDS011;58753;49.440;11.126;2023-02-15T06:18:11;19.47;;;7.80;;
71095;SDS011;58753;49.440;11.126;2023-02-15T06:20:36;22.50;;;9.87;;
71095;SDS011;58753;49.440;11.126;2023-02-15T06:23:02;23.67;;;8.60;;
71095;SDS011;58753;49.440;11.126;2023-02-15T06:25:27;17.53;;;7.93;;
71095;SDS011;58753;49.440;11.126;2023-02-15T06:27:53;14.38;;;5.75;;
71095;SDS011;58753;49.440;11.126;2023-02-15T06:30:19;17.43;;;7.50;;
71095;SDS011;58753;49.440;11.126;2023-02-15T06:32:44;18.90;;;8.27;;
71095;SDS011;58753;49.440;11.126;2023-02-15T06:35:10;19.00;;;7.77;;
71095;SDS011;58753;49.440;11.126;2023-02-15T06:37:36;17.75;;;6.97;;
71095;SDS011;58753;49.440;11.126;2023-02-15T06:40:02;20.60;;;8.50;;
71095;SDS011;58753;49.440;11.126;2023-02-15T06:42:29;12.23;;;5.50;;
71095;SDS011;58753;49.440;11.126;2023-02-15T06:44:54;22.33;;;9.77;;
71095;SDS011;58753;49.440;11.126;2023-02-15T06:47:19;16.47;;;8.80;;
71095;SDS011;58753;49.440;11.126;2023-02-15T06:49:45;20.20;;;7.57;;
71095;SDS011;58753;49.440;11.126;2023-02-15T06:52:10;19.83;;;8.00;;
71095;SDS011;58753;49.440;11.126;2023-02-15T06:54:36;21.50;;;8.33;;
71095;SDS011;58753;49.440;11.126;2023-02-15T06:57:01;18.13;;;7.83;;
71095;SDS011;58753;49.440;11.126;2023-02-15T06:59:26;19.17;;;9.30;;
71095;SDS011;58753;49.440;11.126;2023-02-15T07:01:52;22.03;;;9.93;;
71095;SDS011;58753;49.440;11.126;2023-02-15T07:04:17;16.33;;;7.30;;
71095;SDS011;58753;49.440;11.126;2023-02-15T07:06:42;21.53;;;9.63;;
71095;SDS011;58753;49.440;11.126;2023-02-15T07:09:08;19.20;;;8.77;;
71095;SDS011;58753;49.440;11.126;2023-02-15T07:11:34;22.10;;;8.27;;
71095;SDS011;58753;49.440;11.126;2023-02-15T07:14:18;19.92;;;7.60;;
71095;SDS011;58753;49.440;11.126;2023-02-15T07:16:43;23.07;;;8.77;;
71095;SDS011;58753;49.440;11.126;2023-02-15T07:19:09;19.70;;;8.57;;
71095;SDS011;58753;49.440;11.126;2023-02-15T07:21:34;20.73;;;8.38;;
71095;SDS011;58753;49.440;11.126;2023-02-15T07:24:00;19.40;;;9.75;;
71095;SDS011;58753;49.440;11.126;2023-02-15T07:26:26;21.23;;;9.90;;
71095;SDS011;58753;49.440;11.126;2023-02-15T07:28:51;21.90;;;9.03;;
71095;SDS011;58753;49.440;11.126;2023-02-15T07:31:17;19.17;;;7.75;;
71095;SDS011;58753;49.440;11.126;2023-02-15T07:33:42;23.60;;;8.90;;
71095;SDS011;58753;49.440;11.126;2023-02-15T07:36:08;20.77;;;8.20;;
71095;SDS011;58753;49.440;11.126;2023-02-15T07:38:38;19.45;;;8.15;;
71095;SDS011;58753;49.440;11.126;2023-02-15T07:41:05;18.33;;;7.85;;
71095;SDS011;58753;49.440;11.126;2023-02-15T07:43:33;20.77;;;7.57;;
71095;SDS011;58753;49.440;11.126;2023-02-15T07:46:00;18.03;;;7.83;;
71095;SDS011;58753;49.440;11.126;2023-02-15T07:48:27;19.08;;;7.20;;
71095;SDS011;58753;49.440;11.126;2023-02-15T07:50:52;19.67;;;7.77;;
71095;SDS011;58753;49.440;11.126;2023-02-15T07:53:18;19.27;;;7.43;;
71095;SDS011;58753;49.440;11.126;2023-02-15T07:55:43;21.37;;;8.33;;
71095;SDS011;58753;49.440;11.126;2023-02-15T07:58:09;26.93;;;9.93;;
71095;SDS011;58753;49.440;11.126;2023-02-15T08:00:34;26.50;;;9.33;;
71095;SDS011;58753;49.440;11.126;2023-02-15T08:03:22;23.20;;;9.18;;
71095;SDS011;58753;49.440;11.126;2023-02-15T08:05:51;21.10;;;7.83;;
71095;SDS011;58753;49.440;11.126;2023-02-15T08:08:21;19.13;;;7.40;;
71095;SDS011;58753;49.440;11.126;2023-02-15T08:11:02;19.35;;;7.15;;
71095;SDS011;58753;49.440;11.126;2023-02-15T08:13:46;22.42;;;7.13;;
71095;SDS011;58753;49.440;11.126;2023-02-15T08:16:19;17.60;;;7.00;;
71095;SDS011;58753;49.440;11.126;2023-02-15T08:18:46;20.00;;;8.10;;
71095;SDS011;58753;49.440;11.126;2023-02-15T08:21:12;17.35;;;7.18;;
71095;SDS011;58753;49.440;11.126;2023-02-15T08:23:38;16.63;;;7.30;;
71095;SDS011;58753;49.440;11.126;2023-02-15T08:26:03;14.40;;;6.40;;
71095;SDS011;58753;49.440;11.126;2023-02-15T08:28:29;12.50;;;5.95;;
71095;SDS011;58753;49.440;11.126;2023-02-15T08:30:55;15.73;;;6.30;;
71095;SDS011;58753;49.440;11.126;2023-02-15T08:33:20;17.03;;;7.23;;
71095;SDS011;58753;49.440;11.126;2023-02-15T08:35:45;18.42;;;7.47;;
71095;SDS011;58753;49.440;11.126;2023-02-15T08:38:11;17.73;;;7.07;;
71095;SDS011;58753;49.440;11.126;2023-02-15T08:40:37;17.85;;;7.47;;
71095;SDS011;58753;49.440;11.126;2023-02-15T08:43:03;15.17;;;5.67;;
71095;SDS011;58753;49.440;11.126;2023-02-15T08:45:28;17.80;;;6.80;;
71095;SDS011;58753;49.440;11.126;2023-02-15T08:47:53;18.27;;;7.40;;
71095;SDS011;58753;49.440;11.126;2023-02-15T08:50:19;13.52;;;5.75;;
71095;SDS011;58753;49.440;11.126;2023-02-15T08:52:44;17.80;;;6.30;;
71095;SDS011;58753;49.440;11.126;2023-02-15T08:55:09;15.63;;;6.13;;
71095;SDS011;58753;49.440;11.126;2023-02-15T08:57:35;18.73;;;6.77;;
71095;SDS011;58753;49.440;11.126;2023-02-15T09:00:00;17.57;;;5.53;;
71095;SDS011;58753;49.440;11.126;2023-02-15T09:02:26;16.00;;;6.53;;
71095;SDS011;58753;49.440;11.126;2023-02-15T09:04:52;17.03;;;6.73;;
71095;SDS011;58753;49.440;11.126;2023-02-15T09:07:17;17.87;;;6.73;;
71095;SDS011;58753;49.440;11.126;2023-02-15T09:09:43;13.85;;;5.75;;
71095;SDS011;58753;49.440;11.126;2023-02-15T09:12:10;18.17;;;6.97;;
71095;SDS011;58753;49.440;11.126;2023-02-15T09:14:35;15.87;;;5.83;;
71095;SDS011;58753;49.440;11.126;2023-02-15T09:17:01;17.13;;;6.70;;
71095;SDS011;58753;49.440;11.126;2023-02-15T09:19:26;18.27;;;6.70;;
71095;SDS011;58753;49.440;11.126;2023-02-15T09:21:52;17.23;;;6.17;;
71095;SDS011;58753;49.440;11.126;2023-02-15T09:24:17;17.13;;;6.80;;
71095;SDS011;58753;49.440;11.126;2023-02-15T09:26:44;16.58;;;6.40;;
71095;SDS011;58753;49.440;11.126;2023-02-15T09:29:11;15.10;;;5.60;;
71095;SDS011;58753;49.440;11.126;2023-02-15T09:31:42;13.23;;;5.72;;
71095;SDS011;58753;49.440;11.126;2023-02-15T09:34:10;14.82;;;6.45;;
71095;SDS011;58753;49.440;11.126;2023-02-15T09:36:41;15.68;;;5.97;;
71095;SDS011;58753;49.440;11.126;2023-02-15T09:39:13;17.23;;;6.80;;
71095;SDS011;58753;49.440;11.126;2023-02-15T09:44:25;16.15;;;6.22;;
71095;SDS011;58753;49.440;11.126;2023-02-15T09:47:00;14.55;;;5.75;;
71095;SDS011;58753;49.440;11.126;2023-02-15T09:52:39;13.02;;;5.68;;
71095;SDS011;58753;49.440;11.126;2023-02-15T09:55:43;13.65;;;6.47;;
71095;SDS011;58753;49.440;11.126;2023-02-15T10:12:01;12.95;;;5.05;;
71095;SDS011;58753;49.440;11.126;2023-02-15T10:20:33;14.52;;;6.07;;
71095;SDS011;58753;49.440;11.126;2023-02-15T10:26:17;15.23;;;6.45;;
71095;SDS011;58753;49.440;11.126;2023-02-15T10:31:25;17.30;;;5.67;;
71095;SDS011;58753;49.440;11.126;2023-02-15T10:34:00;17.30;;;6.20;;
71095;SDS011;58753;49.440;11.126;2023-02-15T10:47:54;13.15;;;6.13;;
71095;SDS011;58753;49.440;11.126;2023-02-15T10:55:34;14.05;;;6.00;;
71095;SDS011;58753;49.440;11.126;2023-02-15T11:06:23;12.88;;;6.18;;
71095;SDS011;58753;49.440;11.126;2023-02-15T11:08:53;13.45;;;6.00;;
71095;SDS011;58753;49.440;11.126;2023-02-15T11:11:23;11.82;;;5.50;;
71095;SDS011;58753;49.440;11.126;2023-02-15T11:13:57;16.40;;;6.45;;
71095;SDS011;58753;49.440;11.126;2023-02-15T11:16:32;13.53;;;6.33;;
71095;SDS011;58753;49.440;11.126;2023-02-15T11:19:04;13.40;;;6.32;;
71095;SDS011;58753;49.440;11.126;2023-02-15T11:21:39;14.48;;;5.53;;
71095;SDS011;58753;49.440;11.126;2023-02-15T11:24:09;13.93;;;5.75;;
71095;SDS011;58753;49.440;11.126;2023-02-15T11:26:41;13.75;;;6.72;;
71095;SDS011;58753;49.440;11.126;2023-02-15T11:31:55;13.90;;;6.78;;
71095;SDS011;58753;49.440;11.126;2023-02-15T11:34:29;15.77;;;5.72;;
71095;SDS011;58753;49.440;11.126;2023-02-15T11:37:00;12.40;;;5.40;;
71095;SDS011;58753;49.440;11.126;2023-02-15T11:39:29;14.68;;;6.25;;
71095;SDS011;58753;49.440;11.126;2023-02-15T11:41:57;11.57;;;5.50;;
71095;SDS011;58753;49.440;11.126;2023-02-15T11:44:34;12.95;;;6.15;;
71095;SDS011;58753;49.440;11.126;2023-02-15T11:47:08;12.38;;;6.90;;
71095;SDS011;58753;49.440;11.126;2023-02-15T11:49:37;13.65;;;6.93;;
71095;SDS011;58753;49.440;11.126;2023-02-15T11:52:13;13.85;;;6.20;;
71095;SDS011;58753;49.440;11.126;2023-02-15T11:54:41;11.83;;;6.10;;
71095;SDS011;58753;49.440;11.126;2023-02-15T11:59:37;12.27;;;6.03;;
71095;SDS011;58753;49.440;11.126;2023-02-15T12:02:14;13.63;;;6.82;;
71095;SDS011;58753;49.440;11.126;2023-02-15T12:04:43;13.80;;;6.40;;
71095;SDS011;58753;49.440;11.126;2023-02-15T12:07:20;14.00;;;6.70;;
71095;SDS011;58753;49.440;11.126;2023-02-15T12:12:44;12.70;;;6.03;;
71095;SDS011;58753;49.440;11.126;2023-02-15T12:15:11;13.43;;;7.07;;
71095;SDS011;58753;49.440;11.126;2023-02-15T12:22:46;14.47;;;6.93;;
71095;SDS011;58753;49.440;11.126;2023-02-15T12:25:57;12.65;;;6.38;;
71095;SDS011;58753;49.440;11.126;2023-02-15T12:31:01;13.97;;;6.57;;
71095;SDS011;58753;49.440;11.126;2023-02-15T12:33:34;15.90;;;7.43;;
71095;SDS011;58753;49.440;11.126;2023-02-15T12:36:09;14.68;;;7.45;;
71095;SDS011;58753;49.440;11.126;2023-02-15T12:39:04;14.57;;;7.40;;
71095;SDS011;58753;49.440;11.126;2023-02-15T12:41:37;14.15;;;7.80;;
71095;SDS011;58753;49.440;11.126;2023-02-15T12:49:35;13.70;;;7.95;;
71095;SDS011;58753;49.440;11.126;2023-02-15T12:54:43;21.92;;;10.23;;
71095;SDS011;58753;49.440;11.126;2023-02-15T12:59:54;18.55;;;9.27;;
71095;SDS011;58753;49.440;11.126;2023-02-15T13:02:26;19.42;;;9.95;;
71095;SDS011;58753;49.440;11.126;2023-02-15T13:04:55;18.13;;;10.00;;
71095;SDS011;58753;49.440;11.126;2023-02-15T13:07:23;17.80;;;8.77;;
71095;SDS011;58753;49.440;11.126;2023-02-15T13:09:50;18.60;;;10.37;;
71095;SDS011;58753;49.440;11.126;2023-02-15T13:14:51;18.88;;;9.95;;
71095;SDS011;58753;49.440;11.126;2023-02-15T13:17:26;19.08;;;10.20;;
71095;SDS011;58753;49.440;11.126;2023-02-15T13:19:54;17.93;;;9.00;;
71095;SDS011;58753;49.440;11.126;2023-02-15T13:22:25;23.77;;;10.52;;
71095;SDS011;58753;49.440;11.126;2023-02-15T13:24:59;20.77;;;11.15;;
71095;SDS011;58753;49.440;11.126;2023-02-15T13:27:34;19.23;;;10.20;;
71095;SDS011;58753;49.440;11.126;2023-02-15T13:30:03;21.90;;;11.13;;
71095;SDS011;58753;49.440;11.126;2023-02-15T13:32:38;18.80;;;9.63;;
71095;SDS011;58753;49.440;11.126;2023-02-15T13:35:10;24.55;;;10.98;;
71095;SDS011;58753;49.440;11.126;2023-02-15T13:46:05;22.10;;;10.10;;
71095;SDS011;58753;49.440;11.126;2023-02-15T13:51:09;26.45;;;12.30;;
71095;SDS011;58753;49.440;11.126;2023-02-15T13:59:43;26.03;;;11.90;;
71095;SDS011;58753;49.440;11.126;2023-02-15T14:05:26;24.55;;;12.65;;
71095;SDS011;58753;49.440;11.126;2023-02-15T14:07:58;26.70;;;12.85;;
71095;SDS011;58753;49.440;11.126;2023-02-15T14:16:24;28.88;;;12.43;;
71095;SDS011;58753;49.440;11.126;2023-02-15T14:22:14;30.55;;;13.23;;
71095;SDS011;58753;49.440;11.126;2023-02-15T14:30:41;28.45;;;14.50;;
71095;SDS011;58753;49.440;11.126;2023-02-15T14:35:59;30.23;;;13.90;;
71095;SDS011;58753;49.440;11.126;2023-02-15T14:44:22;25.52;;;12.93;;
71095;SDS011;58753;49.440;11.126;2023-02-15T14:49:38;25.88;;;12.70;;
71095;SDS011;58753;49.440;11.126;2023-02-15T14:52:08;28.15;;;13.15;;
71095;SDS011;58753;49.440;11.126;2023-02-15T15:05:01;33.70;;;13.60;;
71095;SDS011;58753;49.440;11.126;2023-02-15T15:07:45;30.08;;;14.30;;
71095;SDS011;58753;49.440;11.126;2023-02-15T15:15:12;28.07;;;12.33;;
71095;SDS011;58753;49.440;11.126;2023-02-15T15:18:05;27.30;;;13.30;;
71095;SDS011;58753;49.440;11.126;2023-02-15T15:20:41;28.95;;;12.82;;
71095;SDS011;58753;49.440;11.126;2023-02-15T15:28:56;29.57;;;14.10;;
71095;SDS011;58753;49.440;11.126;2023-02-15T15:33:59;30.02;;;14.32;;
71095;SDS011;58753;49.440;11.126;2023-02-15T15:36:39;27.27;;;12.98;;
71095;SDS011;58753;49.440;11.126;2023-02-15T15:39:45;30.13;;;14.07;;
71095;SDS011;58753;49.440;11.126;2023-02-15T15:45:03;34.33;;;14.65;;
71095;SDS011;58753;49.440;11.126;2023-02-15T15:50:44;32.15;;;14.80;;
71095;SDS011;58753;49.440;11.126;2023-02-15T15:53:16;29.87;;;14.03;;
71095;SDS011;58753;49.440;11.126;2023-02-15T15:55:45;28.13;;;12.43;;
71095;SDS011;58753;49.440;11.126;2023-02-15T15:58:14;34.05;;;15.25;;
71095;SDS011;58753;49.440;11.126;2023-02-15T16:00:52;32.28;;;13.63;;
71095;SDS011;58753;49.440;11.126;2023-02-15T16:03:27;35.08;;;14.43;;
71095;SDS011;58753;49.440;11.126;2023-02-15T16:05:54;35.93;;;14.63;;
71095;SDS011;58753;49.440;11.126;2023-02-15T16:10:54;30.80;;;14.95;;
71095;SDS011;58753;49.440;11.126;2023-02-15T16:13:20;29.30;;;12.73;;
71095;SDS011;58753;49.440;11.126;2023-02-15T16:15:46;26.50;;;12.67;;
71095;SDS011;58753;49.440;11.126;2023-02-15T16:18:19;27.10;;;13.98;;
71095;SDS011;58753;49.440;11.126;2023-02-15T16:20:51;30.38;;;13.48;;
71095;SDS011;58753;49.440;11.126;2023-02-15T16:26:12;31.95;;;14.70;;
71095;SDS011;58753;49.440;11.126;2023-02-15T16:28:47;30.52;;;13.93;;
71095;SDS011;58753;49.440;11.126;2023-02-15T16:31:20;30.83;;;13.45;;
71095;SDS011;58753;49.440;11.126;2023-02-15T16:33:52;33.97;;;14.55;;
71095;SDS011;58753;49.440;11.126;2023-02-15T16:36:20;33.93;;;14.73;;
71095;SDS011;58753;49.440;11.126;2023-02-15T16:44:20;27.10;;;12.20;;
71095;SDS011;58753;49.440;11.126;2023-02-15T16:46:46;35.58;;;14.68;;
71095;SDS011;58753;49.440;11.126;2023-02-15T16:49:20;33.92;;;14.82;;
71095;SDS011;58753;49.440;11.126;2023-02-15T16:52:01;32.05;;;14.48;;
71095;SDS011;58753;49.440;11.126;2023-02-15T16:54:31;36.10;;;16.17;;
71095;SDS011;58753;49.440;11.126;2023-02-15T16:56:57;38.40;;;14.57;;
71095;SDS011;58753;49.440;11.126;2023-02-15T16:59:34;30.20;;;13.10;;
71095;SDS011;58753;49.440;11.126;2023-02-15T17:02:18;34.38;;;14.40;;
71095;SDS011;58753;49.440;11.126;2023-02-15T17:04:57;35.92;;;14.05;;
71095;SDS011;58753;49.440;11.126;2023-02-15T17:07:26;38.87;;;14.77;;
71095;SDS011;58753;49.440;11.126;2023-02-15T17:09:56;38.25;;;15.50;;
71095;SDS011;58753;49.440;11.126;2023-02-15T17:15:30;36.60;;;12.80;;
71095;SDS011;58753;49.440;11.126;2023-02-15T17:17:57;38.08;;;14.52;;
71095;SDS011;58753;49.440;11.126;2023-02-15T17:20:24;41.17;;;13.85;;
71095;SDS011;58753;49.440;11.126;2023-02-15T17:22:51;38.13;;;15.18;;
71095;SDS011;58753;49.440;11.126;2023-02-15T17:25:23;43.75;;;16.15;;
71095;SDS011;58753;49.440;11.126;2023-02-15T17:28:00;43.13;;;17.27;;
71095;SDS011;58753;49.440;11.126;2023-02-15T17:30:28;38.65;;;16.42;;
71095;SDS011;58753;49.440;11.126;2023-02-15T17:32:59;41.55;;;16.38;;
71095;SDS011;58753;49.440;11.126;2023-02-15T17:35:35;45.92;;;16.38;;
71095;SDS011;58753;49.440;11.126;2023-02-15T17:38:16;40.25;;;16.35;;
71095;SDS011;58753;49.440;11.126;2023-02-15T17:40:43;48.00;;;17.23;;
71095;SDS011;58753;49.440;11.126;2023-02-15T17:43:08;41.60;;;13.88;;
71095;SDS011;58753;49.440;11.126;2023-02-15T17:45:35;43.03;;;15.43;;
71095;SDS011;58753;49.440;11.126;2023-02-15T17:48:06;40.03;;;16.10;;
71095;SDS011;58753;49.440;11.126;2023-02-15T17:50:40;41.57;;;16.93;;
71095;SDS011;58753;49.440;11.126;2023-02-15T17:53:07;46.35;;;18.65;;
71095;SDS011;58753;49.440;11.126;2023-02-15T17:55:33;44.83;;;18.08;;
71095;SDS011;58753;49.440;11.126;2023-02-15T17:57:59;45.63;;;18.10;;